Terminal Aerodrome Forecast
Issued by NWS

Home | Current Version | Previous Version | Text Only | Print | Product List | Glossary On
Versions: 1 2 3 4 5 6 7 8 9 10 11 12 13 14 15 16
000
FTAK31 PANC 021734
TAFADU
TAF
PADU 021734Z 0218/0318 14007KT 6SM -RA BR BKN025 BKN050
      TEMPO 0218/0222 SCT025 BKN050
     FM030300 22007KT P6SM -SHRA SCT025 BKN050=

USA.gov is the U.S. government's official web portal to all federal, state and local government web resources and services.